Time;durP1;ratioP1;P1;durP2;ratioP2;P2;SDS_P1;SDS_P2;PMS_P1;PMS_P2;Temp;Humidity;BMP_temperature;BMP_pressure;BME280_temperature;BME280_humidity;BME280_pressure;Samples;Min_cycle;Max_cycle;Signal;HPM_P1;HPM_P2
2024/01/03 00:01:29;;;;;;;7.20;1.65;;;12.40;99.90;;;;;;5094272;28;20028;-66
2024/01/03 00:03:55;;;;;;;5.78;1.10;;;12.40;99.90;;;;;;5094329;28;20028;-65
2024/01/03 00:06:21;;;;;;;11.27;1.33;;;12.40;99.90;;;;;;5094101;28;20025;-64
2024/01/03 00:08:47;;;;;;;6.28;0.90;;;12.50;99.90;;;;;;5094133;28;20036;-65
2024/01/03 00:11:19;;;;;;;8.32;1.00;;;12.50;99.90;;;;;;5093045;28;20020;-63
2024/01/03 00:13:57;;;;;;;4.85;1.02;;;12.40;99.90;;;;;;5094206;28;20017;-67
2024/01/03 00:16:22;;;;;;;2.67;0.70;;;12.50;99.90;;;;;;5094108;28;20089;-65
2024/01/03 00:18:54;;;;;;;7.13;0.93;;;12.50;99.90;;;;;;5094086;28;20032;-65
2024/01/03 00:21:25;;;;;;;5.60;0.80;;;12.50;99.90;;;;;;5094152;28;20040;-66
2024/01/03 00:23:53;;;;;;;4.65;0.90;;;12.50;99.90;;;;;;5093875;28;20017;-65
2024/01/03 00:26:19;;;;;;;5.53;0.90;;;12.50;99.90;;;;;;5093831;28;20437;-64
2024/01/03 00:28:45;;;;;;;5.95;1.23;;;12.50;99.90;;;;;;5093976;28;20066;-63
2024/01/03 00:31:33;;;;;;;5.15;1.00;;;12.50;99.90;;;;;;5093673;28;20056;-64
2024/01/03 00:33:59;;;;;;;3.88;0.68;;;12.50;99.90;;;;;;5092990;28;20040;-64
2024/01/03 00:36:25;;;;;;;5.18;1.20;;;12.50;99.90;;;;;;5093641;28;20020;-65
2024/01/03 00:38:51;;;;;;;7.40;0.85;;;12.50;99.90;;;;;;5093787;28;20072;-66
2024/01/03 00:41:17;;;;;;;6.03;0.98;;;12.50;99.90;;;;;;5092538;28;20032;-64
2024/01/03 00:43:42;;;;;;;8.35;1.33;;;12.50;99.90;;;;;;5093645;28;20028;-64
2024/01/03 00:46:09;;;;;;;6.22;1.17;;;12.50;99.90;;;;;;5093517;28;20037;-63
2024/01/03 00:48:35;;;;;;;5.47;0.88;;;12.50;99.90;;;;;;5092728;28;20028;-63
2024/01/03 00:51:03;;;;;;;3.60;0.77;;;12.50;99.90;;;;;;5093298;28;20331;-63
2024/01/03 00:53:30;;;;;;;8.50;1.30;;;12.50;99.90;;;;;;5093423;28;20031;-65
2024/01/03 00:55:56;;;;;;;8.20;1.25;;;12.50;99.90;;;;;;5093361;28;20029;-67
2024/01/03 00:58:22;;;;;;;6.50;0.98;;;12.40;99.90;;;;;;5092224;28;20021;-64
2024/01/03 01:00:49;;;;;;;8.55;1.48;;;12.40;99.90;;;;;;5093229;28;20024;-63
2024/01/03 01:03:15;;;;;;;10.70;1.85;;;12.40;99.90;;;;;;5093031;28;20060;-63
2024/01/03 01:05:41;;;;;;;8.63;1.23;;;12.40;99.90;;;;;;5093131;28;20032;-64
2024/01/03 01:08:06;;;;;;;8.77;1.90;;;12.40;99.90;;;;;;5093139;28;20363;-62
2024/01/03 01:10:32;;;;;;;10.10;2.08;;;12.40;99.90;;;;;;5092947;28;20092;-63
2024/01/03 01:12:58;;;;;;;13.88;1.40;;;12.30;99.90;;;;;;5092955;28;20024;-64
2024/01/03 01:15:23;;;;;;;15.57;1.67;;;12.30;99.90;;;;;;5092893;28;20038;-64
2024/01/03 01:17:49;;;;;;;12.18;2.13;;;12.30;99.90;;;;;;5093026;28;20036;-64
2024/01/03 01:20:15;;;;;;;7.65;1.15;;;12.30;99.90;;;;;;5092900;28;20040;-65
2024/01/03 01:22:40;;;;;;;12.95;2.42;;;12.30;99.90;;;;;;5091704;28;20033;-65
2024/01/03 01:25:06;;;;;;;7.07;1.48;;;12.30;99.90;;;;;;5092726;28;20028;-64
2024/01/03 01:27:32;;;;;;;10.57;2.08;;;12.30;99.90;;;;;;5092832;28;20025;-64
2024/01/03 01:29:57;;;;;;;13.82;1.80;;;12.20;99.90;;;;;;5092656;28;20131;-63
2024/01/03 01:32:23;;;;;;;7.43;1.77;;;12.20;99.90;;;;;;5092551;28;20029;-65
2024/01/03 01:34:48;;;;;;;9.40;1.88;;;12.20;99.90;;;;;;5092446;28;20053;-63
2024/01/03 01:37:14;;;;;;;16.85;2.22;;;12.20;99.90;;;;;;5092702;28;20060;-63
2024/01/03 01:39:40;;;;;;;6.82;1.13;;;12.10;99.90;;;;;;5092552;28;20047;-63
2024/01/03 01:42:06;;;;;;;11.57;1.40;;;12.10;99.90;;;;;;5092688;28;20054;-63
2024/01/03 01:44:31;;;;;;;13.35;2.08;;;12.10;99.90;;;;;;5092552;28;20033;-65
2024/01/03 01:46:58;;;;;;;12.15;1.85;;;12.10;99.90;;;;;;5092491;28;20044;-63
2024/01/03 01:49:24;;;;;;;8.93;1.88;;;12.20;99.90;;;;;;5092359;28;20029;-63
2024/01/03 01:51:50;;;;;;;8.85;1.70;;;12.20;99.90;;;;;;5092384;28;20047;-64
2024/01/03 01:54:17;;;;;;;9.93;2.08;;;12.20;99.90;;;;;;5092469;28;20032;-64
2024/01/03 01:56:43;;;;;;;11.75;1.60;;;12.20;99.90;;;;;;5092410;28;20031;-66
2024/01/03 01:59:10;;;;;;;9.82;1.83;;;12.20;99.90;;;;;;5092447;28;20058;-64
2024/01/03 02:01:36;;;;;;;7.28;1.80;;;12.10;99.90;;;;;;5091008;28;20044;-64
2024/01/03 02:04:08;;;;;;;12.57;2.05;;;12.20;99.90;;;;;;5092317;28;20029;-64
2024/01/03 02:06:35;;;;;;;16.27;2.80;;;12.20;99.90;;;;;;5092437;28;20028;-64
2024/01/03 02:09:00;;;;;;;11.68;1.92;;;12.10;99.90;;;;;;5092189;28;20031;-69
2024/01/03 02:11:26;;;;;;;13.82;1.98;;;12.20;99.90;;;;;;5091149;28;20100;-64
2024/01/03 02:13:52;;;;;;;9.57;1.98;;;12.20;99.90;;;;;;5091249;28;20020;-63
2024/01/03 02:16:17;;;;;;;14.25;2.03;;;12.20;99.90;;;;;;5092081;28;20025;-63
2024/01/03 02:18:44;;;;;;;12.95;2.15;;;12.20;99.90;;;;;;5092105;28;20055;-63
2024/01/03 02:21:16;;;;;;;5.38;1.20;;;12.30;99.90;;;;;;5092063;28;20032;-68
2024/01/03 02:23:43;;;;;;;8.88;2.17;;;12.30;99.90;;;;;;5091215;28;20036;-64
2024/01/03 02:26:09;;;;;;;13.50;3.00;;;12.30;99.90;;;;;;5092065;28;20045;-64
2024/01/03 02:28:35;;;;;;;10.00;2.05;;;12.30;99.90;;;;;;5091917;28;20283;-65
2024/01/03 02:31:00;;;;;;;10.48;1.95;;;12.30;99.90;;;;;;5091694;28;20024;-64
2024/01/03 02:33:26;;;;;;;4.43;1.30;;;12.30;99.90;;;;;;5091962;28;20124;-64
2024/01/03 02:35:52;;;;;;;8.07;1.40;;;12.30;99.90;;;;;;5091967;28;20047;-64
2024/01/03 02:38:18;;;;;;;12.30;2.10;;;12.30;99.90;;;;;;5092053;28;20037;-64
2024/01/03 02:40:44;;;;;;;15.40;2.22;;;12.30;99.90;;;;;;5092039;28;20028;-64
2024/01/03 02:43:10;;;;;;;8.85;1.92;;;12.30;99.90;;;;;;5091883;28;20029;-65
2024/01/03 02:45:36;;;;;;;13.82;2.08;;;12.30;99.90;;;;;;5074211;28;20025;-63
2024/01/03 02:48:02;;;;;;;10.02;2.08;;;12.30;99.90;;;;;;5091930;28;20047;-63
2024/01/03 02:50:27;;;;;;;9.50;1.77;;;12.30;99.90;;;;;;5091967;28;20020;-63
2024/01/03 02:52:53;;;;;;;11.55;1.95;;;12.30;99.90;;;;;;5091800;28;20049;-64
2024/01/03 02:55:19;;;;;;;12.88;1.55;;;12.30;99.90;;;;;;5091763;28;20032;-64
2024/01/03 02:57:44;;;;;;;8.20;2.00;;;12.30;99.90;;;;;;5090704;28;20048;-64
2024/01/03 03:00:11;;;;;;;13.00;2.55;;;12.30;99.90;;;;;;5091644;28;20043;-64
2024/01/03 03:02:36;;;;;;;11.13;2.25;;;12.20;99.90;;;;;;5091539;28;20024;-64
2024/01/03 03:05:02;;;;;;;10.52;1.70;;;12.10;99.90;;;;;;5091640;28;20056;-64
2024/01/03 03:07:28;;;;;;;13.80;2.35;;;12.10;99.90;;;;;;5091648;28;20032;-64
2024/01/03 03:09:53;;;;;;;12.27;2.20;;;12.10;99.90;;;;;;5091614;28;20043;-64
2024/01/03 03:12:19;;;;;;;9.63;1.88;;;12.10;99.90;;;;;;5093150;28;20395;-63
2024/01/03 03:14:44;;;;;;;12.52;2.33;;;12.00;99.90;;;;;;5095416;28;20025;-64
2024/01/03 03:17:10;;;;;;;10.23;2.10;;;12.00;99.90;;;;;;5095281;28;20021;-66
2024/01/03 03:19:36;;;;;;;10.75;2.00;;;12.00;99.90;;;;;;5095112;28;20033;-65
2024/01/03 03:22:01;;;;;;;16.25;2.70;;;12.00;99.90;;;;;;5095124;28;20024;-63
2024/01/03 03:24:27;;;;;;;12.00;3.20;;;12.00;99.90;;;;;;5095169;28;20024;-63
2024/01/03 03:26:53;;;;;;;10.55;2.67;;;12.00;99.90;;;;;;5095034;28;20037;-64
2024/01/03 03:29:19;;;;;;;13.98;2.38;;;11.90;99.90;;;;;;5095005;28;20043;-64
2024/01/03 03:31:44;;;;;;;13.20;2.00;;;11.90;99.90;;;;;;5094910;28;20387;-64
2024/01/03 03:34:10;;;;;;;15.60;1.98;;;11.90;99.90;;;;;;5094880;28;20051;-63
2024/01/03 03:36:35;;;;;;;11.88;1.85;;;11.90;99.90;;;;;;5094972;28;20103;-63
2024/01/03 03:39:01;;;;;;;11.93;2.47;;;11.80;99.90;;;;;;5094838;28;20029;-65
2024/01/03 03:41:27;;;;;;;9.00;1.85;;;11.80;99.90;;;;;;5094818;28;20131;-65
2024/01/03 03:43:53;;;;;;;11.45;1.75;;;11.80;99.90;;;;;;5094672;28;20028;-63
2024/01/03 03:46:19;;;;;;;12.90;2.35;;;11.80;99.90;;;;;;5094744;28;20238;-63
2024/01/03 03:48:44;;;;;;;8.95;1.73;;;11.80;99.90;;;;;;5094764;28;20029;-63
2024/01/03 03:51:10;;;;;;;12.07;2.50;;;11.80;99.90;;;;;;5094663;28;20055;-63
2024/01/03 03:53:36;;;;;;;19.65;2.25;;;11.80;99.90;;;;;;5093559;28;20029;-63
2024/01/03 03:56:01;;;;;;;9.90;2.55;;;11.80;99.90;;;;;;5094451;28;20105;-64
2024/01/03 03:58:27;;;;;;;17.13;2.17;;;11.80;99.90;;;;;;5094471;28;20490;-64
2024/01/03 04:00:53;;;;;;;13.43;2.67;;;11.80;99.90;;;;;;5094375;28;20048;-66
2024/01/03 04:03:18;;;;;;;15.90;2.60;;;11.80;99.90;;;;;;5094399;28;20032;-63
2024/01/03 04:05:44;;;;;;;10.75;2.40;;;11.70;99.90;;;;;;5094452;28;20051;-63
2024/01/03 04:08:10;;;;;;;15.32;3.08;;;11.70;99.90;;;;;;5094325;28;20032;-64
2024/01/03 04:10:35;;;;;;;15.50;3.38;;;11.70;99.90;;;;;;5094248;28;20033;-63
2024/01/03 04:13:01;;;;;;;10.20;1.90;;;11.70;99.90;;;;;;5094067;28;20021;-65
2024/01/03 04:15:26;;;;;;;14.82;2.00;;;11.60;99.90;;;;;;5094193;28;20020;-64
2024/01/03 04:17:52;;;;;;;13.10;2.13;;;11.50;99.90;;;;;;5094167;28;20036;-63
2024/01/03 04:20:18;;;;;;;11.82;2.97;;;11.40;99.90;;;;;;5094062;28;20044;-63
2024/01/03 04:22:45;;;;;;;8.30;2.40;;;11.30;99.90;;;;;;5093954;28;20107;-63
2024/01/03 04:25:11;;;;;;;17.83;2.55;;;11.20;99.90;;;;;;5093315;28;20031;-63
2024/01/03 04:27:37;;;;;;;11.32;1.95;;;11.20;99.90;;;;;;5093894;28;20037;-63
2024/01/03 04:30:04;;;;;;;13.45;1.90;;;11.10;99.90;;;;;;5093901;28;20088;-63
2024/01/03 04:32:33;;;;;;;11.80;1.90;;;10.90;99.90;;;;;;5092570;28;20048;-63
2024/01/03 04:34:58;;;;;;;5.72;1.75;;;10.80;99.90;;;;;;5093750;28;20060;-63
2024/01/03 04:37:24;;;;;;;14.38;2.00;;;10.70;99.90;;;;;;5093796;28;20036;-62
2024/01/03 04:39:50;;;;;;;6.75;1.80;;;10.60;99.90;;;;;;5093662;28;20037;-63
2024/01/03 04:42:16;;;;;;;15.32;2.28;;;10.50;99.90;;;;;;5093698;28;20029;-63
2024/01/03 04:44:43;;;;;;;23.58;2.70;;;10.50;99.90;;;;;;5093705;28;20024;-64
2024/01/03 04:47:08;;;;;;;15.60;2.45;;;10.50;99.90;;;;;;5093758;28;20503;-64
2024/01/03 04:49:35;;;;;;;20.98;2.35;;;10.50;99.90;;;;;;5093608;28;20043;-63
2024/01/03 04:52:00;;;;;;;11.48;1.88;;;10.50;99.90;;;;;;5093575;28;20042;-63
2024/01/03 04:54:26;;;;;;;12.32;1.98;;;10.50;99.90;;;;;;5093563;28;20028;-63
2024/01/03 04:56:52;;;;;;;11.90;1.70;;;10.60;99.90;;;;;;5093361;28;20055;-63
2024/01/03 04:59:17;;;;;;;9.88;1.85;;;10.60;99.90;;;;;;5093342;28;20024;-63
2024/01/03 05:01:43;;;;;;;10.23;2.92;;;10.60;99.90;;;;;;5093070;28;20058;-64
2024/01/03 05:04:09;;;;;;;7.07;1.73;;;10.70;99.90;;;;;;5093219;28;20040;-63
2024/01/03 05:06:35;;;;;;;8.60;1.45;;;10.70;99.90;;;;;;5093252;28;20056;-67
2024/01/03 05:09:01;;;;;;;11.38;1.60;;;10.70;99.90;;;;;;5093059;28;20025;-63
2024/01/03 05:11:27;;;;;;;10.52;2.70;;;10.70;99.90;;;;;;5092161;28;20111;-63
2024/01/03 05:13:52;;;;;;;6.57;1.80;;;10.80;99.90;;;;;;5093020;28;20021;-64
2024/01/03 05:16:18;;;;;;;6.75;1.55;;;10.80;99.90;;;;;;5093047;28;20078;-63
2024/01/03 05:18:44;;;;;;;7.00;1.20;;;10.80;99.90;;;;;;5093021;28;20020;-63
2024/01/03 05:21:10;;;;;;;8.68;1.90;;;10.80;99.90;;;;;;5092940;28;20107;-64
2024/01/03 05:23:36;;;;;;;8.88;1.55;;;10.80;99.90;;;;;;5092934;28;20036;-66
2024/01/03 05:26:02;;;;;;;8.38;1.27;;;10.80;99.90;;;;;;5092764;28;20032;-65
2024/01/03 05:28:28;;;;;;;7.88;1.20;;;10.90;99.90;;;;;;5091722;28;20032;-64
2024/01/03 05:30:53;;;;;;;7.60;1.42;;;10.90;99.90;;;;;;5092557;28;20028;-64
2024/01/03 05:33:19;;;;;;;7.38;1.23;;;10.80;99.90;;;;;;5092555;28;20211;-63
2024/01/03 05:35:45;;;;;;;8.40;1.35;;;10.80;99.90;;;;;;5092457;28;20058;-63
2024/01/03 05:38:10;;;;;;;5.88;1.20;;;10.80;99.90;;;;;;5092742;28;20088;-64
2024/01/03 05:40:36;;;;;;;2.28;0.75;;;10.70;99.90;;;;;;5092551;28;20036;-63
2024/01/03 05:43:02;;;;;;;5.95;0.98;;;10.70;99.90;;;;;;5092673;28;20032;-63
2024/01/03 05:45:28;;;;;;;7.07;1.00;;;10.70;99.90;;;;;;5092557;28;20050;-66
2024/01/03 05:47:53;;;;;;;5.65;0.93;;;10.60;99.90;;;;;;5092517;28;20063;-63
2024/01/03 05:50:19;;;;;;;5.85;0.50;;;10.60;99.90;;;;;;5092331;28;20028;-63
2024/01/03 05:52:45;;;;;;;4.95;0.90;;;10.60;99.90;;;;;;5092423;28;20031;-64
2024/01/03 05:55:10;;;;;;;6.03;1.08;;;10.50;99.90;;;;;;5092517;28;20035;-65
2024/01/03 05:57:36;;;;;;;3.08;0.90;;;10.60;99.90;;;;;;5092428;28;20085;-63
2024/01/03 06:00:02;;;;;;;6.15;1.10;;;10.60;99.90;;;;;;5092284;28;20044;-64
2024/01/03 06:02:28;;;;;;;5.28;0.77;;;10.60;99.90;;;;;;5092188;28;20020;-63
2024/01/03 06:04:54;;;;;;;5.28;0.70;;;10.60;99.90;;;;;;5092457;28;20029;-63
2024/01/03 06:07:19;;;;;;;4.50;0.77;;;10.60;99.90;;;;;;5092363;28;20044;-63
2024/01/03 06:09:45;;;;;;;2.22;0.57;;;10.60;99.90;;;;;;5092310;28;20083;-63
2024/01/03 06:12:11;;;;;;;5.88;0.88;;;10.60;99.90;;;;;;5092361;28;20093;-63
2024/01/03 06:14:37;;;;;;;3.60;0.80;;;10.60;99.90;;;;;;5092250;28;20025;-63
2024/01/03 06:17:02;;;;;;;5.00;0.88;;;10.60;99.90;;;;;;5091199;28;20031;-63
2024/01/03 06:19:28;;;;;;;2.35;0.60;;;10.60;99.90;;;;;;5092257;28;20431;-63
2024/01/03 06:21:53;;;;;;;4.43;0.82;;;10.60;99.90;;;;;;5092122;28;20051;-64
2024/01/03 06:24:19;;;;;;;4.20;0.77;;;10.60;99.90;;;;;;5092162;28;20386;-63
2024/01/03 06:26:44;;;;;;;3.20;0.30;;;10.60;99.90;;;;;;5092093;28;20033;-64
2024/01/03 06:29:10;;;;;;;6.72;1.30;;;10.60;99.90;;;;;;5092092;28;20224;-64
2024/01/03 06:31:36;;;;;;;2.92;0.70;;;10.60;99.90;;;;;;5091890;28;20033;-63
2024/01/03 06:34:02;;;;;;;3.22;0.50;;;10.50;99.90;;;;;;5091918;28;20048;-63
2024/01/03 06:36:27;;;;;;;6.60;1.15;;;10.50;99.90;;;;;;5091902;28;20028;-63
2024/01/03 06:38:53;;;;;;;4.45;1.67;;;10.50;99.90;;;;;;5092128;28;20035;-63
2024/01/03 06:41:19;;;;;;;6.18;0.80;;;10.40;99.90;;;;;;5091986;28;20070;-66
2024/01/03 06:43:44;;;;;;;5.00;1.00;;;10.40;99.90;;;;;;5090998;28;20017;-63
2024/01/03 06:46:10;;;;;;;5.57;1.13;;;10.30;99.90;;;;;;5091964;28;20082;-64
2024/01/03 06:48:36;;;;;;;5.28;0.90;;;10.20;99.90;;;;;;5095220;28;20032;-65
2024/01/03 06:51:03;;;;;;;4.63;0.93;;;10.20;99.90;;;;;;5074999;28;20056;-64
2024/01/03 06:53:30;;;;;;;8.73;1.00;;;10.10;99.90;;;;;;5070653;28;20109;-64
2024/01/03 06:55:56;;;;;;;8.48;0.80;;;10.10;99.90;;;;;;5058961;28;20083;-63
2024/01/03 06:58:21;;;;;;;5.13;1.13;;;10.00;99.90;;;;;;5075401;28;20025;-63
2024/01/03 07:00:48;;;;;;;5.60;0.98;;;9.90;99.90;;;;;;5075413;28;20084;-63
2024/01/03 07:03:14;;;;;;;4.50;0.70;;;9.90;99.90;;;;;;5075394;28;20031;-63
2024/01/03 07:05:40;;;;;;;3.67;0.93;;;9.80;99.90;;;;;;5075367;28;20040;-63
2024/01/03 07:08:07;;;;;;;4.50;0.70;;;9.80;99.90;;;;;;5075421;28;20021;-63
2024/01/03 07:10:34;;;;;;;3.17;0.63;;;9.80;99.90;;;;;;5075336;28;20052;-64
2024/01/03 07:13:00;;;;;;;3.33;0.70;;;9.70;99.90;;;;;;5075479;28;20033;-63
2024/01/03 07:15:27;;;;;;;4.47;0.65;;;9.60;99.90;;;;;;5075337;28;20023;-64
2024/01/03 07:17:55;;;;;;;4.47;0.77;;;9.60;99.90;;;;;;5075392;28;20021;-63
2024/01/03 07:20:22;;;;;;;0.80;0.32;;;9.60;99.90;;;;;;5074996;28;20033;-63
2024/01/03 07:22:48;;;;;;;3.72;0.50;;;9.50;99.90;;;;;;5075183;28;20025;-64
2024/01/03 07:25:14;;;;;;;4.13;0.68;;;9.40;99.90;;;;;;5075115;28;20029;-64
2024/01/03 07:27:40;;;;;;;2.65;0.50;;;9.40;99.90;;;;;;5074046;28;20093;-63
2024/01/03 07:30:06;;;;;;;2.83;0.40;;;9.40;99.90;;;;;;5057359;28;20047;-63
2024/01/03 07:32:32;;;;;;;4.90;1.27;;;9.40;99.90;;;;;;5073869;28;20479;-64
2024/01/03 07:34:58;;;;;;;1.50;0.60;;;9.40;99.90;;;;;;5074744;28;20076;-64
2024/01/03 07:37:36;;;;;;;4.30;0.70;;;9.40;99.90;;;;;;5074065;28;20044;-63
2024/01/03 07:40:02;;;;;;;4.05;0.73;;;9.40;99.90;;;;;;5074887;28;20029;-63
2024/01/03 07:42:28;;;;;;;2.03;0.38;;;9.40;99.90;;;;;;5073876;28;20036;-62
2024/01/03 07:44:53;;;;;;;1.17;0.40;;;9.40;99.90;;;;;;5074844;28;20471;-63
2024/01/03 07:47:19;;;;;;;1.45;0.40;;;9.40;99.90;;;;;;5074842;28;20033;-61
2024/01/03 07:49:45;;;;;;;1.85;0.40;;;9.30;99.90;;;;;;5074522;28;20086;-62
2024/01/03 07:52:10;;;;;;;1.35;0.20;;;9.40;99.90;;;;;;5073711;28;20036;-62
2024/01/03 07:54:36;;;;;;;2.50;1.08;;;9.40;99.90;;;;;;5074685;28;20052;-62
2024/01/03 07:57:04;;;;;;;5.07;1.30;;;9.40;99.90;;;;;;5074600;28;20040;-63
2024/01/03 07:59:33;;;;;;;0.98;0.40;;;9.40;99.90;;;;;;5057270;28;20024;-62
2024/01/03 08:01:59;;;;;;;3.58;1.50;;;9.30;99.90;;;;;;5073236;28;20025;-66
2024/01/03 08:04:25;;;;;;;2.53;0.77;;;9.30;99.90;;;;;;5074438;28;20227;-68
2024/01/03 08:06:51;;;;;;;3.00;1.48;;;9.30;99.90;;;;;;5074348;28;20025;-67
2024/01/03 08:09:17;;;;;;;3.50;0.90;;;9.30;99.90;;;;;;5074300;28;20029;-66
2024/01/03 08:11:42;;;;;;;3.10;1.60;;;9.40;99.90;;;;;;5074346;28;20032;-67
2024/01/03 08:14:08;;;;;;;2.10;0.63;;;9.40;99.90;;;;;;5073389;28;20021;-67
2024/01/03 08:16:34;;;;;;;1.98;1.60;;;9.40;99.90;;;;;;5073139;28;20029;-69
2024/01/03 08:18:59;;;;;;;3.35;0.95;;;9.40;99.90;;;;;;5074227;28;20020;-67
2024/01/03 08:21:41;;;;;;;3.85;1.83;;;9.40;99.90;;;;;;5074082;28;20029;-67
2024/01/03 08:24:07;;;;;;;4.18;2.00;;;9.40;99.90;;;;;;5073140;28;20025;-63
2024/01/03 08:26:33;;;;;;;4.82;1.65;;;9.40;99.90;;;;;;5074103;28;20116;-66
2024/01/03 08:28:58;;;;;;;3.38;1.35;;;9.50;99.90;;;;;;5073953;28;20084;-67
2024/01/03 08:31:24;;;;;;;3.35;1.67;;;9.50;99.90;;;;;;5073839;28;20033;-66
2024/01/03 08:33:49;;;;;;;4.35;2.90;;;9.50;99.90;;;;;;5072864;28;20049;-66
2024/01/03 08:36:15;;;;;;;5.75;2.65;;;9.60;99.90;;;;;;5073938;28;20033;-65
2024/01/03 08:38:41;;;;;;;6.95;3.40;;;9.60;99.90;;;;;;5073874;28;20026;-67
2024/01/03 08:41:17;;;;;;;5.93;2.60;;;9.60;99.90;;;;;;5073795;28;20043;-65
2024/01/03 08:43:44;;;;;;;8.68;3.15;;;9.60;99.90;;;;;;5073562;28;20130;-67
2024/01/03 08:46:09;;;;;;;6.93;1.70;;;9.60;99.90;;;;;;5073597;28;20036;-66
2024/01/03 08:48:39;;;;;;;7.18;1.65;;;9.60;99.90;;;;;;5076282;28;20084;-67
2024/01/03 08:51:10;;;;;;;5.88;2.10;;;9.70;99.90;;;;;;5079645;28;20108;-66
2024/01/03 08:53:35;;;;;;;5.47;1.85;;;9.70;99.90;;;;;;5072163;28;20021;-66
2024/01/03 08:56:04;;;;;;;7.15;2.08;;;9.80;99.90;;;;;;5073103;28;20056;-66
2024/01/03 08:58:30;;;;;;;7.43;1.70;;;9.80;99.90;;;;;;5072170;28;20029;-66
2024/01/03 09:00:56;;;;;;;10.05;3.20;;;9.80;99.90;;;;;;5073153;28;20319;-65
2024/01/03 09:03:22;;;;;;;5.97;1.85;;;9.80;99.90;;;;;;5073204;28;20051;-67
2024/01/03 09:05:47;;;;;;;3.70;1.45;;;9.80;99.90;;;;;;5072272;28;20052;-67
2024/01/03 09:08:13;;;;;;;6.03;0.82;;;9.90;99.90;;;;;;5073164;28;20058;-67
2024/01/03 09:10:39;;;;;;;8.13;1.85;;;9.90;99.90;;;;;;5072555;28;20037;-66
2024/01/03 09:13:04;;;;;;;3.50;1.08;;;9.90;99.90;;;;;;5072977;28;20088;-67
2024/01/03 09:15:30;;;;;;;10.20;1.85;;;10.00;99.90;;;;;;5073044;28;20021;-68
2024/01/03 09:17:56;;;;;;;8.15;1.55;;;10.00;99.90;;;;;;5073082;28;20039;-67
2024/01/03 09:20:21;;;;;;;6.30;2.22;;;10.00;99.90;;;;;;5072721;28;20029;-66
2024/01/03 09:22:47;;;;;;;10.45;1.70;;;10.10;99.90;;;;;;5072904;28;20051;-66
2024/01/03 09:28:15;;;;;;;11.50;2.53;;;10.10;99.90;;;;;;5071421;28;20041;-62
2024/01/03 09:30:40;;;;;;;8.63;1.92;;;10.20;99.90;;;;;;5071661;28;20067;-61
2024/01/03 09:33:06;;;;;;;10.10;2.45;;;10.20;99.90;;;;;;5071491;28;20025;-62
2024/01/03 09:35:32;;;;;;;21.77;3.67;;;10.20;99.90;;;;;;5054826;28;20061;-61
2024/01/03 09:37:57;;;;;;;12.73;4.03;;;10.30;99.90;;;;;;5054936;28;20036;-62
2024/01/03 09:40:23;;;;;;;12.82;3.15;;;10.30;99.90;;;;;;5071722;28;20032;-63
2024/01/03 09:42:49;;;;;;;11.40;3.47;;;10.30;99.90;;;;;;5072567;28;20037;-62
2024/01/03 09:45:15;;;;;;;28.17;7.50;;;10.30;99.90;;;;;;5072728;28;20035;-61
2024/01/03 09:47:42;;;;;;;21.30;6.68;;;10.40;99.90;;;;;;5072622;28;20033;-62
2024/01/03 09:50:08;;;;;;;12.60;3.42;;;10.40;99.90;;;;;;5072451;28;20064;-60
2024/01/03 09:52:34;;;;;;;12.52;2.40;;;10.40;99.90;;;;;;5072480;28;20029;-63
2024/01/03 09:55:14;;;;;;;27.30;8.68;;;10.40;99.90;;;;;;5071316;28;20051;-60
2024/01/03 09:58:08;;;;;;;11.25;3.50;;;10.50;99.90;;;;;;5071375;28;20033;-61
2024/01/03 10:00:47;;;;;;;11.90;2.33;;;10.50;99.90;;;;;;5071953;28;20403;-61
2024/01/03 10:03:19;;;;;;;22.35;3.28;;;10.60;99.90;;;;;;5072204;28;20033;-61
2024/01/03 10:05:45;;;;;;;11.57;2.63;;;10.60;99.90;;;;;;5072266;28;20021;-62
2024/01/03 10:08:15;;;;;;;13.57;3.83;;;10.70;99.90;;;;;;5072143;28;20036;-61
2024/01/03 10:10:41;;;;;;;11.27;2.88;;;10.80;99.90;;;;;;5072109;28;20383;-62
2024/01/03 10:13:18;;;;;;;11.48;2.20;;;10.80;99.90;;;;;;5071208;28;20020;-62
2024/01/03 10:15:46;;;;;;;9.13;1.98;;;10.90;99.90;;;;;;5072221;28;20021;-62
2024/01/03 10:18:14;;;;;;;12.88;3.72;;;10.90;99.90;;;;;;5072220;28;20031;-62
2024/01/03 10:20:40;;;;;;;9.75;2.33;;;10.90;99.90;;;;;;5072029;28;20036;-61
2024/01/03 10:23:10;;;;;;;7.75;1.92;;;10.90;99.90;;;;;;5075337;28;20088;-61
2024/01/03 10:25:40;;;;;;;9.85;2.45;;;11.00;99.90;;;;;;5076370;28;20051;-62
2024/01/03 10:28:07;;;;;;;8.65;2.25;;;11.00;99.90;;;;;;5076331;28;20025;-66
2024/01/03 10:30:33;;;;;;;13.20;3.08;;;11.00;99.90;;;;;;5075072;28;20029;-62
2024/01/03 10:33:03;;;;;;;8.32;1.90;;;11.10;99.90;;;;;;5076016;28;20021;-61
2024/01/03 10:35:29;;;;;;;10.82;3.72;;;11.10;99.90;;;;;;5058322;28;20468;-62
2024/01/03 10:37:59;;;;;;;15.60;4.25;;;11.10;99.90;;;;;;5074957;28;20029;-63
2024/01/03 10:40:27;;;;;;;14.30;3.53;;;11.10;99.90;;;;;;5075924;28;20032;-63
2024/01/03 10:42:53;;;;;;;17.55;3.67;;;11.10;99.90;;;;;;5074975;28;20036;-63
2024/01/03 10:45:19;;;;;;;16.02;4.80;;;11.10;99.90;;;;;;5074850;28;20426;-63
2024/01/03 10:47:45;;;;;;;11.80;2.65;;;11.10;99.90;;;;;;5075808;28;20049;-63
2024/01/03 10:50:11;;;;;;;15.57;2.90;;;11.10;99.90;;;;;;5074781;28;20025;-62
2024/01/03 10:52:37;;;;;;;16.02;3.15;;;11.20;99.90;;;;;;5074837;28;20539;-61
2024/01/03 10:55:09;;;;;;;13.13;2.50;;;11.20;99.90;;;;;;5075770;28;20017;-62
2024/01/03 10:57:36;;;;;;;17.10;3.05;;;11.20;99.90;;;;;;5075661;28;20021;-62
2024/01/03 11:00:44;;;;;;;16.67;2.50;;;11.20;99.90;;;;;;5075688;28;20036;-62
2024/01/03 11:03:18;;;;;;;10.18;2.30;;;11.30;99.90;;;;;;5075284;28;20043;-62
2024/01/03 11:06:17;;;;;;;11.25;2.42;;;11.30;99.90;;;;;;5075568;28;20028;-63
2024/01/03 11:08:54;;;;;;;13.85;2.28;;;11.30;99.90;;;;;;5075274;28;20029;-63
2024/01/03 11:11:34;;;;;;;10.18;2.47;;;11.30;99.90;;;;;;5075203;28;20025;-62
2024/01/03 11:14:01;;;;;;;11.93;2.67;;;11.30;99.90;;;;;;5075228;28;20032;-61
2024/01/03 11:16:35;;;;;;;10.60;2.47;;;11.30;99.90;;;;;;5075274;28;20025;-63
2024/01/03 11:19:01;;;;;;;12.85;2.97;;;11.30;99.90;;;;;;5075378;28;20059;-62
2024/01/03 11:21:28;;;;;;;11.48;2.17;;;11.30;99.90;;;;;;5075141;28;20053;-62
2024/01/03 11:23:54;;;;;;;18.52;2.45;;;11.40;99.90;;;;;;5075118;28;20043;-62
2024/01/03 11:26:40;;;;;;;14.57;2.55;;;11.40;99.90;;;;;;5074989;28;20025;-62
2024/01/03 11:29:05;;;;;;;7.65;1.80;;;11.40;99.90;;;;;;5074796;28;20033;-63
2024/01/03 11:32:06;;;;;;;17.10;2.40;;;11.40;99.90;;;;;;5074909;28;20099;-63
2024/01/03 11:34:40;;;;;;;11.68;2.05;;;11.40;99.90;;;;;;5073967;28;20059;-62
2024/01/03 11:37:26;;;;;;;17.88;2.65;;;11.40;99.90;;;;;;5074827;28;20128;-62
2024/01/03 11:39:57;;;;;;;8.05;2.40;;;11.30;99.90;;;;;;5074735;28;20025;-63
2024/01/03 11:42:38;;;;;;;16.15;2.67;;;11.30;99.90;;;;;;5074881;28;20021;-61
2024/01/03 11:45:08;;;;;;;15.90;2.35;;;11.30;99.90;;;;;;5074802;28;20021;-60
2024/01/03 11:47:39;;;;;;;11.95;2.47;;;11.10;99.90;;;;;;5074880;28;20013;-62
2024/01/03 11:50:07;;;;;;;18.50;4.60;;;11.00;99.90;;;;;;5074597;28;20033;-61
2024/01/03 11:52:38;;;;;;;12.10;1.77;;;10.90;99.90;;;;;;5074761;28;20028;-62
2024/01/03 11:55:10;;;;;;;9.70;1.42;;;10.80;99.90;;;;;;5074634;28;20047;-64
2024/01/03 11:57:36;;;;;;;;;;;10.80;99.90;;;;;;5075059;28;20077;-61
2024/01/03 12:00:03;;;;;;;13.32;2.88;;;10.70;99.90;;;;;;5074443;28;19916;-63
2024/01/03 12:02:29;;;;;;;10.02;2.22;;;10.70;99.90;;;;;;5073262;28;20051;-62
2024/01/03 12:05:05;;;;;;;10.05;1.55;;;10.60;99.90;;;;;;5074371;28;20029;-63
2024/01/03 12:07:33;;;;;;;6.97;1.77;;;10.60;99.90;;;;;;5074427;28;20080;-62
2024/01/03 12:10:00;;;;;;;7.93;1.67;;;10.60;99.90;;;;;;5074058;28;20029;-62
2024/01/03 12:12:26;;;;;;;9.90;1.48;;;10.60;99.90;;;;;;5074248;28;20025;-63
2024/01/03 12:14:55;;;;;;;5.90;1.10;;;10.50;99.90;;;;;;5074183;28;20021;-62
2024/01/03 12:17:32;;;;;;;5.82;1.20;;;10.50;99.90;;;;;;5074244;28;20025;-62
2024/01/03 12:20:11;;;;;;;12.50;1.33;;;10.50;99.90;;;;;;5074052;28;20033;-63
2024/01/03 12:22:37;;;;;;;3.60;0.70;;;10.50;99.90;;;;;;5074109;28;20036;-61
2024/01/03 12:25:03;;;;;;;4.20;1.00;;;10.50;99.90;;;;;;5074076;28;20021;-62
2024/01/03 12:27:31;;;;;;;4.38;0.90;;;10.40;99.90;;;;;;5073934;28;20036;-62
2024/01/03 12:30:17;;;;;;;4.75;1.27;;;10.40;99.90;;;;;;5073971;28;20036;-62
2024/01/03 12:32:43;;;;;;;4.82;0.90;;;10.40;99.90;;;;;;5073682;28;20120;-63
2024/01/03 12:35:09;;;;;;;2.42;0.75;;;10.30;99.90;;;;;;5073779;28;20041;-63
2024/01/03 12:37:35;;;;;;;6.90;1.23;;;10.30;99.90;;;;;;5073776;28;20031;-63
2024/01/03 12:40:01;;;;;;;7.78;1.42;;;10.30;99.90;;;;;;5073749;28;20021;-62
2024/01/03 12:42:27;;;;;;;4.90;0.90;;;10.30;99.90;;;;;;5073750;28;20025;-62
2024/01/03 12:44:52;;;;;;;5.93;0.80;;;10.30;99.90;;;;;;5072907;28;20033;-62
2024/01/03 12:47:18;;;;;;;1.50;0.60;;;10.40;99.90;;;;;;5073674;28;20052;-62
2024/01/03 12:49:44;;;;;;;5.10;0.80;;;10.50;99.90;;;;;;5073537;28;20456;-62